KMM490 EDDB-LSZH
Flight info
| Callsign | KMM490 |
|---|---|
| Flight time | 1h 26m |
| Altitude | 35000 |
| Route | KISUC Z20 MAG Z92 ABGUS LUXUX SWALM OMOGI T721 RILAX |
| Aircraft | A320/M-SDE3FGHIRWY/LB1 |
Departure
| Time | 2026-05-05 18:20 |
|---|---|
| Airport | Berlin Brandenburg Airport (EDDB) |
Arrival
| Time | 2026-05-05 19:46 |
|---|---|
| Airport | Zürich Airport (LSZH) |
| Time | Latitude | Longitude | Altitude | Speed | Heading |
|---|---|---|---|---|---|
| 2026-05-05 17:48 | 52.36579 | 13.50474 | 162 ft | 0 kts | 69° |
| 2026-05-05 18:06 | 52.36574 | 13.50455 | 162 ft | 4 kts | 68° |
| 2026-05-05 18:06 | 52.36567 | 13.50427 | 162 ft | 4 kts | 66° |
| 2026-05-05 18:06 | 52.36551 | 13.50375 | 162 ft | 4 kts | 54° |
| 2026-05-05 18:06 | 52.36533 | 13.50348 | 162 ft | 4 kts | 4° |
| 2026-05-05 18:07 | 52.36525 | 13.50348 | 162 ft | 0 kts | 339° |
| 2026-05-05 18:11 | 52.36526 | 13.50348 | 162 ft | 0 kts | 339° |
| 2026-05-05 18:12 | 52.36540 | 13.50339 | 162 ft | 6 kts | 339° |
| 2026-05-05 18:12 | 52.36577 | 13.50316 | 162 ft | 6 kts | 339° |
| 2026-05-05 18:12 | 52.36613 | 13.50293 | 162 ft | 6 kts | 339° |
| 2026-05-05 18:13 | 52.36649 | 13.50270 | 162 ft | 6 kts | 339° |
| 2026-05-05 18:13 | 52.36686 | 13.50247 | 162 ft | 6 kts | 339° |
| 2026-05-05 18:13 | 52.36720 | 13.50221 | 162 ft | 5 kts | 314° |
| 2026-05-05 18:13 | 52.36737 | 13.50174 | 162 ft | 4 kts | 278° |
| 2026-05-05 18:14 | 52.36727 | 13.50122 | 162 ft | 5 kts | 249° |
| 2026-05-05 18:14 | 52.36723 | 13.50070 | 162 ft | 5 kts | 300° |
| 2026-05-05 18:14 | 52.36739 | 13.50054 | 162 ft | 1 kts | 338° |
| 2026-05-05 18:14 | 52.36741 | 13.50053 | 162 ft | 0 kts | 338° |
| 2026-05-05 18:15 | 52.36745 | 13.50050 | 162 ft | 3 kts | 338° |
| 2026-05-05 18:15 | 52.36783 | 13.49984 | 162 ft | 12 kts | 273° |
| 2026-05-05 18:15 | 52.36755 | 13.49847 | 162 ft | 13 kts | 248° |
| 2026-05-05 18:15 | 52.36722 | 13.49708 | 162 ft | 13 kts | 248° |
| 2026-05-05 18:16 | 52.36688 | 13.49566 | 162 ft | 13 kts | 249° |
| 2026-05-05 18:16 | 52.36656 | 13.49426 | 162 ft | 13 kts | 249° |
| 2026-05-05 18:16 | 52.36622 | 13.49285 | 162 ft | 13 kts | 248° |
| 2026-05-05 18:16 | 52.36588 | 13.49144 | 162 ft | 13 kts | 249° |
| 2026-05-05 18:17 | 52.36554 | 13.48998 | 162 ft | 15 kts | 249° |
| 2026-05-05 18:17 | 52.36513 | 13.48824 | 162 ft | 17 kts | 249° |
| 2026-05-05 18:17 | 52.36470 | 13.48644 | 162 ft | 17 kts | 249° |
| 2026-05-05 18:17 | 52.36434 | 13.48485 | 162 ft | 13 kts | 262° |
| 2026-05-05 18:18 | 52.36488 | 13.48388 | 162 ft | 13 kts | 339° |
| 2026-05-05 18:18 | 52.36571 | 13.48337 | 162 ft | 13 kts | 339° |
| 2026-05-05 18:18 | 52.36627 | 13.48302 | 162 ft | 13 kts | 339° |
| 2026-05-05 18:18 | 52.36711 | 13.48299 | 162 ft | 9 kts | 38° |
| 2026-05-05 18:19 | 52.36743 | 13.48390 | 162 ft | 10 kts | 68° |
| 2026-05-05 18:19 | 52.36829 | 13.48754 | 162 ft | 71 kts | 69° |
| 2026-05-05 18:19 | 52.37095 | 13.49884 | 162 ft | 138 kts | 69° |
| 2026-05-05 18:19 | 52.37490 | 13.51547 | 453 ft | 161 kts | 69° |
| 2026-05-05 18:20 | 52.37890 | 13.53235 | 1134 ft | 163 kts | 69° |
| 2026-05-05 18:20 | 52.38302 | 13.54977 | 1837 ft | 166 kts | 69° |
| 2026-05-05 18:20 | 52.38715 | 13.56749 | 2497 ft | 169 kts | 67° |
| 2026-05-05 18:20 | 52.39154 | 13.58631 | 2854 ft | 184 kts | 66° |
| 2026-05-05 18:21 | 52.39664 | 13.60640 | 3249 ft | 197 kts | 62° |
| 2026-05-05 18:21 | 52.40443 | 13.62562 | 3627 ft | 210 kts | 46° |
| 2026-05-05 18:21 | 52.41732 | 13.63902 | 3934 ft | 231 kts | 21° |
| 2026-05-05 18:21 | 52.43318 | 13.64715 | 4448 ft | 247 kts | 17° |
| 2026-05-05 18:22 | 52.45003 | 13.65569 | 5032 ft | 259 kts | 19° |
| 2026-05-05 18:22 | 52.46715 | 13.66587 | 5765 ft | 265 kts | 21° |
| 2026-05-05 18:22 | 52.48454 | 13.67680 | 6501 ft | 270 kts | 21° |
| 2026-05-05 18:22 | 52.50234 | 13.68760 | 7236 ft | 275 kts | 18° |
| 2026-05-05 18:23 | 52.52136 | 13.69227 | 7944 ft | 281 kts | 356° |
| 2026-05-05 18:23 | 52.53996 | 13.68268 | 8639 ft | 285 kts | 327° |
| 2026-05-05 18:23 | 52.55394 | 13.65970 | 9332 ft | 289 kts | 304° |
| 2026-05-05 18:23 | 52.56430 | 13.63116 | 10026 ft | 293 kts | 299° |
| 2026-05-05 18:24 | 52.57433 | 13.60164 | 10703 ft | 298 kts | 299° |
| 2026-05-05 18:24 | 52.58472 | 13.57199 | 11392 ft | 301 kts | 296° |
| 2026-05-05 18:24 | 52.59135 | 13.53960 | 12089 ft | 299 kts | 274° |
| 2026-05-05 18:24 | 52.58943 | 13.50588 | 12675 ft | 301 kts | 250° |
| 2026-05-05 18:25 | 52.58045 | 13.47409 | 13046 ft | 314 kts | 241° |
| 2026-05-05 18:25 | 52.57322 | 13.45305 | 13220 ft | 325 kts | 240° |
| 2026-05-05 18:25 | 52.55760 | 13.40869 | 13593 ft | 345 kts | 240° |
| 2026-05-05 18:25 | 52.54639 | 13.37305 | 13952 ft | 355 kts | 244° |
| 2026-05-05 18:26 | 52.53592 | 13.33614 | 14540 ft | 358 kts | 245° |
| 2026-05-05 18:26 | 52.52565 | 13.29875 | 15131 ft | 360 kts | 246° |
| 2026-05-05 18:26 | 52.51533 | 13.26116 | 15713 ft | 362 kts | 245° |
| 2026-05-05 18:26 | 52.50484 | 13.22339 | 16283 ft | 364 kts | 245° |
| 2026-05-05 18:27 | 52.49419 | 13.18554 | 16836 ft | 366 kts | 245° |
| 2026-05-05 18:27 | 52.48345 | 13.14750 | 17367 ft | 369 kts | 245° |
| 2026-05-05 18:27 | 52.47266 | 13.10925 | 17881 ft | 371 kts | 245° |
| 2026-05-05 18:27 | 52.46180 | 13.07084 | 18368 ft | 373 kts | 245° |
| 2026-05-05 18:28 | 52.43984 | 12.99314 | 19313 ft | 377 kts | 245° |
| 2026-05-05 18:28 | 52.42875 | 12.95404 | 19774 ft | 380 kts | 245° |
| 2026-05-05 18:28 | 52.41772 | 12.91523 | 20217 ft | 382 kts | 245° |
| 2026-05-05 18:29 | 52.40649 | 12.87574 | 20649 ft | 384 kts | 245° |
| 2026-05-05 18:29 | 52.39517 | 12.83603 | 21059 ft | 386 kts | 245° |
| 2026-05-05 18:29 | 52.38376 | 12.79609 | 21469 ft | 388 kts | 244° |
| 2026-05-05 18:29 | 52.37228 | 12.75594 | 21869 ft | 390 kts | 244° |
| 2026-05-05 18:30 | 52.36074 | 12.71564 | 22268 ft | 392 kts | 244° |
| 2026-05-05 18:30 | 52.34909 | 12.67512 | 22644 ft | 394 kts | 244° |
| 2026-05-05 18:30 | 52.33736 | 12.63448 | 23020 ft | 396 kts | 244° |
| 2026-05-05 18:30 | 52.32555 | 12.59362 | 23365 ft | 399 kts | 244° |
| 2026-05-05 18:31 | 52.31370 | 12.55252 | 23712 ft | 401 kts | 244° |
| 2026-05-05 18:31 | 52.30180 | 12.51125 | 24057 ft | 402 kts | 244° |
| 2026-05-05 18:31 | 52.28982 | 12.46983 | 24397 ft | 404 kts | 244° |
| 2026-05-05 18:31 | 52.27778 | 12.42828 | 24739 ft | 406 kts | 243° |
| 2026-05-05 18:32 | 52.26564 | 12.38661 | 25061 ft | 407 kts | 243° |
| 2026-05-05 18:32 | 52.25348 | 12.34481 | 25383 ft | 409 kts | 243° |
| 2026-05-05 18:32 | 52.24129 | 12.30284 | 25707 ft | 410 kts | 243° |
| 2026-05-05 18:32 | 52.22904 | 12.26083 | 26019 ft | 411 kts | 243° |
| 2026-05-05 18:33 | 52.21668 | 12.21875 | 26326 ft | 412 kts | 243° |
| 2026-05-05 18:33 | 52.20427 | 12.17653 | 26615 ft | 414 kts | 243° |
| 2026-05-05 18:33 | 52.19185 | 12.13419 | 26898 ft | 415 kts | 243° |
| 2026-05-05 18:33 | 52.17940 | 12.09175 | 27187 ft | 416 kts | 243° |
| 2026-05-05 18:34 | 52.16689 | 12.04918 | 27467 ft | 417 kts | 243° |
| 2026-05-05 18:34 | 52.15434 | 12.00664 | 27742 ft | 418 kts | 242° |
| 2026-05-05 18:34 | 52.14168 | 11.96402 | 28004 ft | 419 kts | 242° |
| 2026-05-05 18:34 | 52.12902 | 11.92130 | 28266 ft | 419 kts | 242° |
| 2026-05-05 18:35 | 52.11636 | 11.87848 | 28532 ft | 420 kts | 242° |
| 2026-05-05 18:35 | 52.10362 | 11.83565 | 28783 ft | 421 kts | 242° |
| 2026-05-05 18:35 | 52.09084 | 11.79276 | 29024 ft | 422 kts | 242° |
| 2026-05-05 18:35 | 52.07805 | 11.74983 | 29273 ft | 422 kts | 242° |
| 2026-05-05 18:36 | 52.06526 | 11.70701 | 29602 ft | 421 kts | 242° |
| 2026-05-05 18:36 | 52.05248 | 11.66442 | 29953 ft | 418 kts | 242° |
| 2026-05-05 18:36 | 52.03975 | 11.62207 | 30291 ft | 416 kts | 242° |
| 2026-05-05 18:36 | 52.02708 | 11.57990 | 30590 ft | 415 kts | 242° |
| 2026-05-05 18:37 | 52.01445 | 11.53782 | 30895 ft | 414 kts | 241° |
| 2026-05-05 18:37 | 52.00181 | 11.49591 | 31195 ft | 413 kts | 241° |
| 2026-05-05 18:37 | 51.98913 | 11.45415 | 31390 ft | 414 kts | 240° |
| 2026-05-05 18:37 | 51.97632 | 11.41204 | 31529 ft | 416 kts | 240° |
| 2026-05-05 18:38 | 51.96357 | 11.36991 | 31791 ft | 416 kts | 240° |
| 2026-05-05 18:38 | 51.95088 | 11.32783 | 32043 ft | 415 kts | 240° |
| 2026-05-05 18:38 | 51.93814 | 11.28581 | 32274 ft | 415 kts | 240° |
| 2026-05-05 18:38 | 51.92536 | 11.24388 | 32501 ft | 415 kts | 240° |
| 2026-05-05 18:39 | 51.91255 | 11.20205 | 32765 ft | 414 kts | 240° |
| 2026-05-05 18:39 | 51.89977 | 11.16031 | 32978 ft | 414 kts | 240° |
| 2026-05-05 18:39 | 51.88699 | 11.11855 | 33202 ft | 414 kts | 240° |
| 2026-05-05 18:39 | 51.87424 | 11.07680 | 33407 ft | 414 kts | 240° |
| 2026-05-05 18:40 | 51.86335 | 11.03359 | 33650 ft | 416 kts | 247° |
| 2026-05-05 18:40 | 51.85483 | 10.98872 | 33836 ft | 418 kts | 249° |
| 2026-05-05 18:40 | 51.84698 | 10.94341 | 34030 ft | 418 kts | 250° |
| 2026-05-05 18:40 | 51.83939 | 10.89801 | 34233 ft | 418 kts | 250° |
| 2026-05-05 18:41 | 51.83165 | 10.85270 | 34414 ft | 418 kts | 249° |
| 2026-05-05 18:41 | 51.82361 | 10.80763 | 34597 ft | 417 kts | 249° |
| 2026-05-05 18:41 | 51.81552 | 10.76327 | 34761 ft | 417 kts | 249° |
| 2026-05-05 18:41 | 51.80732 | 10.71824 | 34834 ft | 419 kts | 249° |
| 2026-05-05 18:42 | 51.79104 | 10.62798 | 34828 ft | 418 kts | 249° |
| 2026-05-05 18:42 | 51.77481 | 10.53780 | 34828 ft | 418 kts | 249° |
| 2026-05-05 18:43 | 51.75841 | 10.44794 | 34831 ft | 417 kts | 249° |
| 2026-05-05 18:43 | 51.74206 | 10.35820 | 34833 ft | 417 kts | 249° |
| 2026-05-05 18:44 | 51.72557 | 10.26868 | 34868 ft | 416 kts | 249° |
| 2026-05-05 18:44 | 51.70909 | 10.17934 | 34859 ft | 415 kts | 249° |
| 2026-05-05 18:45 | 51.69257 | 10.09016 | 34852 ft | 415 kts | 249° |
| 2026-05-05 18:45 | 51.67593 | 10.00120 | 34842 ft | 415 kts | 249° |
| 2026-05-05 18:46 | 51.65930 | 9.91225 | 34803 ft | 415 kts | 249° |
| 2026-05-05 18:46 | 51.63938 | 9.82574 | 34755 ft | 409 kts | 237° |
| 2026-05-05 18:47 | 51.60360 | 9.75674 | 34756 ft | 401 kts | 216° |
| 2026-05-05 18:47 | 51.55477 | 9.71495 | 34752 ft | 399 kts | 200° |
| 2026-05-05 18:48 | 51.50239 | 9.68446 | 34751 ft | 401 kts | 200° |
| 2026-05-05 18:48 | 51.45012 | 9.65262 | 34749 ft | 403 kts | 201° |
| 2026-05-05 18:49 | 51.39824 | 9.61997 | 34744 ft | 404 kts | 201° |
| 2026-05-05 18:49 | 51.34572 | 9.58757 | 34745 ft | 405 kts | 200° |
| 2026-05-05 18:50 | 51.29298 | 9.55522 | 34747 ft | 406 kts | 200° |
| 2026-05-05 18:50 | 51.23981 | 9.52255 | 34754 ft | 407 kts | 200° |
| 2026-05-05 18:51 | 51.18730 | 9.49033 | 34745 ft | 408 kts | 200° |
| 2026-05-05 18:51 | 51.13430 | 9.45788 | 34744 ft | 408 kts | 199° |
| 2026-05-05 18:52 | 51.07920 | 9.43705 | 34754 ft | 408 kts | 186° |
| 2026-05-05 18:52 | 51.02251 | 9.43001 | 34745 ft | 410 kts | 183° |
| 2026-05-05 18:53 | 50.96550 | 9.42533 | 34747 ft | 411 kts | 183° |
| 2026-05-05 18:53 | 50.90873 | 9.41538 | 34782 ft | 411 kts | 190° |
| 2026-05-05 18:54 | 50.85270 | 9.39642 | 34770 ft | 413 kts | 192° |
| 2026-05-05 18:54 | 50.79653 | 9.37719 | 34768 ft | 413 kts | 191° |
| 2026-05-05 18:55 | 50.74025 | 9.35913 | 34786 ft | 413 kts | 190° |
| 2026-05-05 18:55 | 50.68391 | 9.34102 | 34760 ft | 414 kts | 190° |
| 2026-05-05 18:56 | 50.62745 | 9.32264 | 34757 ft | 414 kts | 190° |
| 2026-05-05 18:56 | 50.57100 | 9.30428 | 34753 ft | 414 kts | 190° |
| 2026-05-05 18:57 | 50.51451 | 9.28615 | 34767 ft | 414 kts | 190° |
| 2026-05-05 18:57 | 50.45799 | 9.26795 | 34765 ft | 415 kts | 190° |
| 2026-05-05 18:58 | 50.40146 | 9.24978 | 34760 ft | 415 kts | 190° |
| 2026-05-05 18:58 | 50.34490 | 9.23164 | 34757 ft | 415 kts | 190° |
| 2026-05-05 18:59 | 50.28827 | 9.21377 | 34766 ft | 415 kts | 190° |
| 2026-05-05 18:59 | 50.23205 | 9.19577 | 34771 ft | 415 kts | 190° |
| 2026-05-05 19:00 | 50.17534 | 9.17771 | 34748 ft | 416 kts | 189° |
| 2026-05-05 19:00 | 50.11857 | 9.15984 | 34757 ft | 416 kts | 190° |
| 2026-05-05 19:01 | 50.06142 | 9.14162 | 34781 ft | 416 kts | 190° |
| 2026-05-05 19:01 | 50.00462 | 9.12371 | 34779 ft | 417 kts | 189° |
| 2026-05-05 19:02 | 49.94815 | 9.10596 | 34773 ft | 417 kts | 189° |
| 2026-05-05 19:02 | 49.89124 | 9.08812 | 34783 ft | 417 kts | 190° |
| 2026-05-05 19:03 | 49.84360 | 9.07319 | 34795 ft | 417 kts | 190° |
| 2026-05-05 19:03 | 49.77748 | 9.05252 | 34806 ft | 417 kts | 190° |
| 2026-05-05 19:04 | 49.72068 | 9.03496 | 34857 ft | 416 kts | 190° |
| 2026-05-05 19:04 | 49.67314 | 9.02018 | 34853 ft | 416 kts | 190° |
| 2026-05-05 19:05 | 49.61647 | 9.00252 | 34854 ft | 416 kts | 190° |
| 2026-05-05 19:05 | 49.55976 | 8.98497 | 34849 ft | 416 kts | 190° |
| 2026-05-05 19:06 | 49.50309 | 8.96746 | 34842 ft | 415 kts | 190° |
| 2026-05-05 19:06 | 49.44639 | 8.94994 | 34831 ft | 415 kts | 190° |
| 2026-05-05 19:07 | 49.38971 | 8.93261 | 34824 ft | 415 kts | 190° |
| 2026-05-05 19:07 | 49.33304 | 8.91521 | 34817 ft | 415 kts | 190° |
| 2026-05-05 19:08 | 49.27690 | 8.89799 | 34476 ft | 414 kts | 190° |
| 2026-05-05 19:08 | 49.24864 | 8.88934 | 34123 ft | 414 kts | 190° |
| 2026-05-05 19:08 | 49.22039 | 8.88071 | 33684 ft | 413 kts | 190° |
| 2026-05-05 19:09 | 49.19223 | 8.87214 | 33192 ft | 413 kts | 190° |
| 2026-05-05 19:09 | 49.16406 | 8.86358 | 32695 ft | 413 kts | 190° |
| 2026-05-05 19:09 | 49.13589 | 8.85503 | 32199 ft | 413 kts | 190° |
| 2026-05-05 19:09 | 49.10763 | 8.84641 | 31701 ft | 414 kts | 190° |
| 2026-05-05 19:10 | 49.07932 | 8.83782 | 31203 ft | 415 kts | 190° |
| 2026-05-05 19:10 | 49.05095 | 8.82929 | 30705 ft | 416 kts | 190° |
| 2026-05-05 19:10 | 49.02255 | 8.82071 | 30207 ft | 416 kts | 190° |
| 2026-05-05 19:10 | 48.99415 | 8.81207 | 29710 ft | 416 kts | 190° |
| 2026-05-05 19:11 | 48.96581 | 8.80347 | 29297 ft | 415 kts | 190° |
| 2026-05-05 19:11 | 48.93755 | 8.79495 | 28984 ft | 413 kts | 190° |
| 2026-05-05 19:11 | 48.90938 | 8.78649 | 28736 ft | 412 kts | 190° |
| 2026-05-05 19:11 | 48.88129 | 8.77822 | 28489 ft | 410 kts | 189° |
| 2026-05-05 19:12 | 48.85327 | 8.77057 | 28245 ft | 409 kts | 189° |
| 2026-05-05 19:12 | 48.82533 | 8.76305 | 27998 ft | 407 kts | 189° |
| 2026-05-05 19:12 | 48.79750 | 8.75561 | 27750 ft | 405 kts | 189° |
| 2026-05-05 19:12 | 48.76973 | 8.74824 | 27500 ft | 405 kts | 189° |
| 2026-05-05 19:13 | 48.74204 | 8.74088 | 27252 ft | 403 kts | 189° |
| 2026-05-05 19:13 | 48.71448 | 8.73351 | 27005 ft | 402 kts | 189° |
| 2026-05-05 19:13 | 48.68701 | 8.72613 | 26758 ft | 400 kts | 189° |
| 2026-05-05 19:13 | 48.65963 | 8.71880 | 26451 ft | 399 kts | 189° |
| 2026-05-05 19:14 | 48.63242 | 8.71156 | 25965 ft | 395 kts | 189° |
| 2026-05-05 19:14 | 48.60546 | 8.70440 | 25460 ft | 392 kts | 189° |
| 2026-05-05 19:14 | 48.57876 | 8.69727 | 24951 ft | 388 kts | 189° |
| 2026-05-05 19:14 | 48.55221 | 8.69022 | 24408 ft | 386 kts | 189° |
| 2026-05-05 19:15 | 48.52582 | 8.68325 | 23877 ft | 384 kts | 189° |
| 2026-05-05 19:15 | 48.49959 | 8.67632 | 23348 ft | 382 kts | 189° |
| 2026-05-05 19:15 | 48.47349 | 8.66941 | 22831 ft | 380 kts | 190° |
| 2026-05-05 19:15 | 48.44757 | 8.66255 | 22333 ft | 377 kts | 190° |
| 2026-05-05 19:16 | 48.42188 | 8.65575 | 21999 ft | 373 kts | 190° |
| 2026-05-05 19:16 | 48.39633 | 8.64899 | 21752 ft | 372 kts | 190° |
| 2026-05-05 19:16 | 48.37091 | 8.64194 | 21454 ft | 371 kts | 191° |
| 2026-05-05 19:16 | 48.34572 | 8.63439 | 21030 ft | 367 kts | 192° |
| 2026-05-05 19:17 | 48.32075 | 8.62679 | 20591 ft | 364 kts | 192° |
| 2026-05-05 19:17 | 48.29598 | 8.61927 | 20146 ft | 362 kts | 192° |
| 2026-05-05 19:17 | 48.27135 | 8.61182 | 19686 ft | 360 kts | 192° |
| 2026-05-05 19:17 | 48.24683 | 8.60444 | 19240 ft | 358 kts | 193° |
| 2026-05-05 19:18 | 48.22281 | 8.59721 | 18805 ft | 356 kts | 193° |
| 2026-05-05 19:18 | 48.19853 | 8.58988 | 18364 ft | 355 kts | 193° |
| 2026-05-05 19:18 | 48.17442 | 8.58265 | 17952 ft | 351 kts | 193° |
| 2026-05-05 19:18 | 48.15052 | 8.57548 | 17845 ft | 350 kts | 193° |
| 2026-05-05 19:19 | 48.12663 | 8.56828 | 17845 ft | 350 kts | 193° |
| 2026-05-05 19:19 | 48.10275 | 8.56115 | 17846 ft | 350 kts | 193° |
| 2026-05-05 19:19 | 48.07889 | 8.55406 | 17847 ft | 350 kts | 193° |
| 2026-05-05 19:19 | 48.05504 | 8.54699 | 17849 ft | 350 kts | 193° |
| 2026-05-05 19:20 | 48.03116 | 8.53995 | 17851 ft | 350 kts | 193° |
| 2026-05-05 19:20 | 48.00728 | 8.53286 | 17851 ft | 350 kts | 193° |
| 2026-05-05 19:20 | 47.98342 | 8.52575 | 17852 ft | 348 kts | 193° |
| 2026-05-05 19:20 | 47.95928 | 8.52188 | 17847 ft | 352 kts | 182° |
| 2026-05-05 19:21 | 47.93503 | 8.52801 | 17847 ft | 358 kts | 164° |
| 2026-05-05 19:21 | 47.91301 | 8.54592 | 17858 ft | 366 kts | 147° |
| 2026-05-05 19:21 | 47.89328 | 8.57007 | 17871 ft | 368 kts | 143° |
| 2026-05-05 19:21 | 47.87409 | 8.59530 | 17870 ft | 368 kts | 142° |
| 2026-05-05 19:22 | 47.85481 | 8.62040 | 17869 ft | 367 kts | 143° |
| 2026-05-05 19:22 | 47.83526 | 8.64478 | 17869 ft | 367 kts | 144° |
| 2026-05-05 19:22 | 47.81549 | 8.66853 | 17864 ft | 360 kts | 145° |
| 2026-05-05 19:22 | 47.79640 | 8.69132 | 17859 ft | 344 kts | 145° |
| 2026-05-05 19:23 | 47.77813 | 8.71326 | 17860 ft | 332 kts | 145° |
| 2026-05-05 19:23 | 47.76047 | 8.73461 | 17861 ft | 324 kts | 145° |
| 2026-05-05 19:23 | 47.74307 | 8.75569 | 17867 ft | 322 kts | 145° |
| 2026-05-05 19:23 | 47.72567 | 8.77669 | 17869 ft | 322 kts | 145° |
| 2026-05-05 19:24 | 47.70827 | 8.79771 | 17871 ft | 322 kts | 145° |
| 2026-05-05 19:24 | 47.69086 | 8.81871 | 17872 ft | 322 kts | 145° |
| 2026-05-05 19:24 | 47.67354 | 8.83961 | 17868 ft | 317 kts | 145° |
| 2026-05-05 19:24 | 47.65665 | 8.86002 | 17868 ft | 310 kts | 145° |
| 2026-05-05 19:25 | 47.64013 | 8.87994 | 17869 ft | 301 kts | 145° |
| 2026-05-05 19:25 | 47.62429 | 8.89986 | 17862 ft | 299 kts | 139° |
| 2026-05-05 19:25 | 47.61171 | 8.92470 | 17748 ft | 305 kts | 125° |
| 2026-05-05 19:25 | 47.60177 | 8.95247 | 17530 ft | 305 kts | 121° |
| 2026-05-05 19:26 | 47.59269 | 8.98065 | 17279 ft | 301 kts | 120° |
| 2026-05-05 19:26 | 47.58379 | 9.00838 | 17030 ft | 296 kts | 120° |
| 2026-05-05 19:26 | 47.57470 | 9.03545 | 16780 ft | 291 kts | 122° |
| 2026-05-05 19:26 | 47.56671 | 9.06283 | 16516 ft | 292 kts | 107° |
| 2026-05-05 19:27 | 47.56431 | 9.09267 | 16277 ft | 292 kts | 96° |
| 2026-05-05 19:27 | 47.56379 | 9.12254 | 16032 ft | 288 kts | 96° |
| 2026-05-05 19:27 | 47.56262 | 9.15188 | 15780 ft | 284 kts | 100° |
| 2026-05-05 19:27 | 47.56026 | 9.18029 | 15533 ft | 279 kts | 102° |
| 2026-05-05 19:28 | 47.55749 | 9.20858 | 15284 ft | 277 kts | 103° |
| 2026-05-05 19:28 | 47.55623 | 9.23702 | 15024 ft | 280 kts | 87° |
| 2026-05-05 19:28 | 47.56254 | 9.26421 | 14755 ft | 284 kts | 56° |
| 2026-05-05 19:28 | 47.57713 | 9.28361 | 14504 ft | 285 kts | 24° |
| 2026-05-05 19:29 | 47.59608 | 9.28995 | 14256 ft | 279 kts | 352° |
| 2026-05-05 19:29 | 47.61402 | 9.28184 | 14009 ft | 266 kts | 320° |
| 2026-05-05 19:29 | 47.62598 | 9.26231 | 13766 ft | 252 kts | 290° |
| 2026-05-05 19:29 | 47.63053 | 9.23791 | 13530 ft | 243 kts | 269° |
| 2026-05-05 19:30 | 47.62987 | 9.21325 | 13291 ft | 238 kts | 260° |
| 2026-05-05 19:30 | 47.62610 | 9.18977 | 13023 ft | 232 kts | 238° |
| 2026-05-05 19:30 | 47.61671 | 9.17042 | 12795 ft | 231 kts | 230° |
| 2026-05-05 19:30 | 47.60714 | 9.15135 | 12545 ft | 230 kts | 235° |
| 2026-05-05 19:31 | 47.59923 | 9.13068 | 12295 ft | 230 kts | 241° |
| 2026-05-05 19:31 | 47.59311 | 9.10870 | 12052 ft | 235 kts | 255° |
| 2026-05-05 19:31 | 47.59331 | 9.08405 | 11806 ft | 247 kts | 277° |
| 2026-05-05 19:31 | 47.59752 | 9.05912 | 11571 ft | 250 kts | 281° |
| 2026-05-05 19:32 | 47.60244 | 9.03443 | 11324 ft | 250 kts | 283° |
| 2026-05-05 19:32 | 47.60745 | 9.00988 | 11053 ft | 248 kts | 283° |
| 2026-05-05 19:32 | 47.61237 | 8.98545 | 10870 ft | 247 kts | 283° |
| 2026-05-05 19:32 | 47.61720 | 8.96102 | 10868 ft | 247 kts | 283° |
| 2026-05-05 19:33 | 47.62201 | 8.93660 | 10867 ft | 246 kts | 283° |
| 2026-05-05 19:33 | 47.62683 | 8.91224 | 10864 ft | 246 kts | 283° |
| 2026-05-05 19:33 | 47.63164 | 8.88789 | 10856 ft | 246 kts | 283° |
| 2026-05-05 19:33 | 47.63645 | 8.86352 | 10851 ft | 246 kts | 283° |
| 2026-05-05 19:34 | 47.64124 | 8.83918 | 10858 ft | 246 kts | 283° |
| 2026-05-05 19:34 | 47.64596 | 8.81517 | 10858 ft | 246 kts | 283° |
| 2026-05-05 19:34 | 47.65080 | 8.79047 | 10699 ft | 245 kts | 283° |
| 2026-05-05 19:35 | 47.66014 | 8.74214 | 10187 ft | 242 kts | 283° |
| 2026-05-05 19:35 | 47.66470 | 8.71811 | 9958 ft | 241 kts | 283° |
| 2026-05-05 19:35 | 47.66813 | 8.69395 | 9696 ft | 238 kts | 269° |
| 2026-05-05 19:35 | 47.66482 | 8.67029 | 9447 ft | 236 kts | 243° |
| 2026-05-05 19:36 | 47.65441 | 8.65164 | 9193 ft | 238 kts | 218° |
| 2026-05-05 19:36 | 47.63904 | 8.64209 | 8956 ft | 245 kts | 192° |
| 2026-05-05 19:36 | 47.62191 | 8.64399 | 8898 ft | 253 kts | 169° |
| 2026-05-05 19:36 | 47.60514 | 8.65213 | 8903 ft | 255 kts | 164° |
| 2026-05-05 19:37 | 47.58856 | 8.66139 | 8901 ft | 255 kts | 163° |
| 2026-05-05 19:37 | 47.57203 | 8.67091 | 8893 ft | 255 kts | 161° |
| 2026-05-05 19:37 | 47.55685 | 8.68476 | 8883 ft | 261 kts | 139° |
| 2026-05-05 19:37 | 47.54648 | 8.70696 | 8691 ft | 266 kts | 114° |
| 2026-05-05 19:38 | 47.54205 | 8.73352 | 8451 ft | 266 kts | 100° |
| 2026-05-05 19:38 | 47.53953 | 8.76060 | 8164 ft | 266 kts | 98° |
| 2026-05-05 19:38 | 47.53738 | 8.78780 | 7775 ft | 266 kts | 97° |
| 2026-05-05 19:38 | 47.53530 | 8.81488 | 7417 ft | 264 kts | 97° |
| 2026-05-05 19:39 | 47.53325 | 8.84186 | 7033 ft | 264 kts | 97° |
| 2026-05-05 19:39 | 47.53119 | 8.86875 | 6664 ft | 262 kts | 98° |
| 2026-05-05 19:39 | 47.52673 | 8.89461 | 6279 ft | 258 kts | 118° |
| 2026-05-05 19:39 | 47.51581 | 8.91477 | 5999 ft | 246 kts | 146° |
| 2026-05-05 19:40 | 47.50108 | 8.92453 | 5968 ft | 221 kts | 174° |
| 2026-05-05 19:40 | 47.48645 | 8.92653 | 6014 ft | 205 kts | 181° |
| 2026-05-05 19:40 | 47.47255 | 8.92715 | 5842 ft | 196 kts | 182° |
| 2026-05-05 19:40 | 47.45904 | 8.92752 | 5564 ft | 194 kts | 183° |
| 2026-05-05 19:41 | 47.44622 | 8.92322 | 5218 ft | 189 kts | 211° |
| 2026-05-05 19:41 | 47.43748 | 8.90944 | 4986 ft | 185 kts | 244° |
| 2026-05-05 19:41 | 47.43448 | 8.89098 | 4984 ft | 188 kts | 268° |
| 2026-05-05 19:41 | 47.43523 | 8.87178 | 4988 ft | 186 kts | 274° |
| 2026-05-05 19:42 | 47.43653 | 8.85309 | 4988 ft | 186 kts | 275° |
| 2026-05-05 19:42 | 47.43795 | 8.83423 | 4984 ft | 181 kts | 275° |
| 2026-05-05 19:42 | 47.43923 | 8.81636 | 4936 ft | 170 kts | 274° |
| 2026-05-05 19:42 | 47.44041 | 8.79926 | 4728 ft | 165 kts | 274° |
| 2026-05-05 19:43 | 47.44159 | 8.78251 | 4500 ft | 164 kts | 275° |
| 2026-05-05 19:43 | 47.44279 | 8.76564 | 4269 ft | 166 kts | 274° |
| 2026-05-05 19:43 | 47.44398 | 8.74875 | 4023 ft | 166 kts | 275° |
| 2026-05-05 19:43 | 47.44520 | 8.73169 | 3781 ft | 168 kts | 275° |
| 2026-05-05 19:44 | 47.44641 | 8.71451 | 3539 ft | 168 kts | 275° |
| 2026-05-05 19:44 | 47.44762 | 8.69738 | 3297 ft | 168 kts | 275° |
| 2026-05-05 19:44 | 47.44884 | 8.68024 | 3043 ft | 164 kts | 275° |
| 2026-05-05 19:44 | 47.45000 | 8.66388 | 2811 ft | 157 kts | 275° |
| 2026-05-05 19:45 | 47.45112 | 8.64791 | 2596 ft | 153 kts | 275° |
| 2026-05-05 19:45 | 47.45220 | 8.63272 | 2368 ft | 147 kts | 275° |
| 2026-05-05 19:45 | 47.45323 | 8.61774 | 2155 ft | 146 kts | 275° |
| 2026-05-05 19:45 | 47.45425 | 8.60281 | 1939 ft | 146 kts | 276° |
| 2026-05-05 19:46 | 47.45540 | 8.58793 | 1724 ft | 145 kts | 275° |
| 2026-05-05 19:46 | 47.45641 | 8.57320 | 1513 ft | 143 kts | 274° |
| 2026-05-05 19:46 | 47.45738 | 8.55960 | 1430 ft | 103 kts | 275° |
| 2026-05-05 19:46 | 47.45779 | 8.55368 | 1430 ft | 13 kts | 276° |
| 2026-05-05 19:47 | 47.45759 | 8.55285 | 1430 ft | 9 kts | 205° |
| 2026-05-05 19:47 | 47.45725 | 8.55290 | 1430 ft | 2 kts | 160° |
| 2026-05-05 19:47 | 47.45718 | 8.55294 | 1430 ft | 0 kts | 160° |
| 2026-05-05 19:50 | 47.45716 | 8.55295 | 1430 ft | 2 kts | 160° |
| 2026-05-05 19:50 | 47.45672 | 8.55317 | 1430 ft | 9 kts | 161° |
| 2026-05-05 19:51 | 47.45614 | 8.55350 | 1430 ft | 9 kts | 156° |
| 2026-05-05 19:51 | 47.45554 | 8.55389 | 1430 ft | 9 kts | 151° |
| 2026-05-05 19:51 | 47.45530 | 8.55472 | 1430 ft | 9 kts | 97° |
| 2026-05-05 19:51 | 47.45522 | 8.55566 | 1430 ft | 9 kts | 97° |
| 2026-05-05 19:52 | 47.45514 | 8.55663 | 1430 ft | 10 kts | 95° |
| 2026-05-05 19:52 | 47.45507 | 8.55764 | 1430 ft | 10 kts | 95° |
| 2026-05-05 19:52 | 47.45501 | 8.55867 | 1430 ft | 10 kts | 95° |
| 2026-05-05 19:52 | 47.45496 | 8.55943 | 1430 ft | 7 kts | 95° |
| 2026-05-05 19:53 | 47.45491 | 8.56001 | 1430 ft | 2 kts | 125° |
| 2026-05-05 19:53 | 47.45475 | 8.56010 | 1430 ft | 3 kts | 168° |
| 2026-05-05 19:53 | 47.45457 | 8.56010 | 1430 ft | 3 kts | 182° |
| 2026-05-05 19:53 | 47.45438 | 8.56007 | 1430 ft | 3 kts | 186° |
| 2026-05-05 19:54 | 47.45422 | 8.56005 | 1430 ft | 2 kts | 186° |
| 2026-05-05 19:54 | 47.45419 | 8.56004 | 1430 ft | 0 kts | 186° |
| 2026-05-05 19:54 | 47.45416 | 8.56004 | 1430 ft | 1 kts | 186° |
| 2026-05-05 19:54 | 47.45412 | 8.56003 | 1430 ft | 0 kts | 186° |
| 2026-05-05 19:55 | 47.45411 | 8.56003 | 1430 ft | 0 kts | 186° |